Nearby METAR Reports

 

LIEE - Cagliari Elmas, Italy
Distance from station: ONO 12km
Dati ricevuti: 09/08/2020 16:20
Sereno
Sereno
 Vento da S
Vento: S 24 km/h
Temperatura: 31°C
Indice di Calore: 33°C
P.to Rugiada: 19°C
Umidità: 49%
Barometro: 1014 hPa
Sommario: Sereno
Visibility: superiore a 10 km
2020/08/09 14:20 LIEE 091420Z 18013KT CAVOK 31/19 Q1014
LIED - Decimomannu, Italy
Distance from station: NNO 22km
Dati ricevuti: 09/08/2020 15:55
Few Clouds
Few Clouds
 Vento da SSE
Vento: SSE 26 km/h
Temperatura: 35°C
P.to Rugiada: 18°C
Umidità: 36%
Barometro: 1013 hPa
Nuvole: Few Clouds
Visibility: 10 km
Cloud details: Few Clouds 1219 m
2020/08/09 13:55 LIED 091355Z 15014KT 9999 FEW040 35/18 Q1013 RMK FEW VIS MIN 9999 WIND THR35 15013KT WIND THR17 /////KT BLU